Time;durP1;ratioP1;P1;durP2;ratioP2;P2;SDS_P1;SDS_P2;PMS_P1;PMS_P2;Temp;Humidity;BMP_temperature;BMP_pressure;BME280_temperature;BME280_humidity;BME280_pressure;Samples;Min_cycle;Max_cycle;Signal;HPM_P1;HPM_P2
2023/05/24 00:00:37;;;;;;;4.67;3.10;;;21.60;46.90;;;;;;5037410;28;20497;-47
2023/05/24 00:03:03;;;;;;;7.00;3.13;;;21.60;46.60;;;;;;5051893;28;20703;-48
2023/05/24 00:05:29;;;;;;;4.53;3.40;;;21.70;46.30;;;;;;5045251;28;20657;-48
2023/05/24 00:07:55;;;;;;;3.43;2.80;;;21.80;46.60;;;;;;5040131;28;20824;-49
2023/05/24 00:10:21;;;;;;;3.70;3.13;;;21.90;46.30;;;;;;5040957;28;20509;-48
2023/05/24 00:12:46;;;;;;;3.43;3.13;;;21.80;45.70;;;;;;5045831;28;20806;-48
2023/05/24 00:15:12;;;;;;;3.43;2.80;;;21.80;45.90;;;;;;5048694;28;20227;-48
2023/05/24 00:17:41;;;;;;;3.70;2.90;;;21.80;45.70;;;;;;5041162;28;20204;-49
2023/05/24 00:20:13;;;;;;;4.20;3.80;;;21.80;45.30;;;;;;5045482;28;20200;-48
2023/05/24 00:22:40;;;;;;;4.03;2.97;;;21.90;45.70;;;;;;5048134;28;20473;-47
2023/05/24 00:25:06;;;;;;;4.00;3.20;;;21.80;45.50;;;;;;5047956;28;20473;-48
2023/05/24 00:27:32;;;;;;;3.20;2.90;;;21.80;45.70;;;;;;5051582;28;20494;-47
2023/05/24 00:29:57;;;;;;;4.87;3.03;;;21.70;45.20;;;;;;5046744;28;20503;-48
2023/05/24 00:32:23;;;;;;;4.73;3.07;;;21.70;45.10;;;;;;5047095;28;20234;-48
2023/05/24 00:34:48;;;;;;;4.13;3.20;;;21.70;45.10;;;;;;5048794;28;20616;-47
2023/05/24 00:37:14;;;;;;;4.00;3.00;;;21.80;45.30;;;;;;5041850;28;20196;-52
2023/05/24 00:39:40;;;;;;;4.50;2.70;;;21.80;44.60;;;;;;5044198;28;20201;-48
2023/05/24 00:42:06;;;;;;;4.60;3.13;;;21.70;45.00;;;;;;5048094;28;20258;-49
2023/05/24 00:44:32;;;;;;;3.90;3.03;;;21.60;44.30;;;;;;5043741;28;20307;-48
2023/05/24 00:46:58;;;;;;;4.40;3.50;;;21.70;44.60;;;;;;5050280;28;20195;-47
2023/05/24 00:49:24;;;;;;;7.70;3.10;;;21.70;44.80;;;;;;5044120;28;20439;-47
2023/05/24 00:51:51;;;;;;;3.90;2.97;;;21.70;44.90;;;;;;5043926;28;20490;-49
2023/05/24 00:54:17;;;;;;;6.40;3.00;;;21.70;44.90;;;;;;5044020;28;20188;-47
2023/05/24 00:56:43;;;;;;;3.33;2.90;;;21.80;44.80;;;;;;5048842;28;20454;-47
2023/05/24 00:59:09;;;;;;;4.10;3.70;;;21.80;44.70;;;;;;5043815;28;20263;-47
2023/05/24 01:01:36;;;;;;;6.00;3.50;;;21.70;43.90;;;;;;5046583;28;20204;-47
2023/05/24 01:04:02;;;;;;;5.13;3.27;;;21.70;44.00;;;;;;5040334;28;20450;-47
2023/05/24 01:06:28;;;;;;;3.47;3.17;;;21.70;44.40;;;;;;5048251;28;20482;-47
2023/05/24 01:09:10;;;;;;;7.50;3.50;;;21.70;44.30;;;;;;5032584;28;20808;-47
2023/05/24 01:12:03;;;;;;;5.23;3.10;;;21.70;44.30;;;;;;5044653;28;20498;-47
2023/05/24 01:14:43;;;;;;;5.00;3.20;;;21.70;44.10;;;;;;5039855;28;20453;-48
2023/05/24 01:17:19;;;;;;;7.50;3.50;;;21.60;43.80;;;;;;5047185;28;20446;-47
2023/05/24 01:20:00;;;;;;;5.70;3.10;;;21.60;43.90;;;;;;5046370;28;20478;-48
2023/05/24 01:23:14;;;;;;;4.13;2.97;;;21.60;43.70;;;;;;5038721;28;20454;-47
2023/05/24 01:26:13;;;;;;;5.47;3.47;;;21.40;43.60;;;;;;5048818;28;20584;-48
2023/05/24 01:28:42;;;;;;;6.50;3.13;;;21.30;43.90;;;;;;5045224;28;20484;-48
2023/05/24 01:31:09;;;;;;;5.53;3.60;;;21.10;44.00;;;;;;5046461;28;20486;-48
2023/05/24 01:33:39;;;;;;;4.63;3.20;;;21.10;44.30;;;;;;5044538;28;20525;-47
2023/05/24 01:36:05;;;;;;;6.80;3.43;;;21.10;44.60;;;;;;5046961;28;20538;-47
2023/05/24 01:38:30;;;;;;;5.80;3.40;;;21.10;44.70;;;;;;5047743;28;20856;-51
2023/05/24 01:41:04;;;;;;;6.40;3.60;;;21.10;44.90;;;;;;5049815;28;20193;-47
2023/05/24 01:43:36;;;;;;;6.33;3.10;;;21.20;44.90;;;;;;5042347;28;20648;-47
2023/05/24 01:46:05;;;;;;;6.30;3.57;;;21.30;44.80;;;;;;5048271;28;20435;-49
2023/05/24 01:48:52;;;;;;;4.10;3.47;;;21.30;45.10;;;;;;5045363;28;20534;-47
2023/05/24 01:51:21;;;;;;;6.63;3.43;;;21.30;45.00;;;;;;5045319;28;20513;-47
2023/05/24 01:53:49;;;;;;;11.93;4.10;;;21.30;44.80;;;;;;5045247;28;20435;-48
2023/05/24 01:56:18;;;;;;;6.20;3.33;;;21.30;45.40;;;;;;5046988;28;20443;-47
2023/05/24 01:58:45;;;;;;;9.67;4.00;;;21.30;45.20;;;;;;5046736;28;20475;-52
2023/05/24 02:01:12;;;;;;;8.07;4.23;;;21.30;45.20;;;;;;5043491;28;20438;-47
2023/05/24 02:03:39;;;;;;;4.23;3.23;;;21.30;45.40;;;;;;5047965;28;20918;-48
2023/05/24 02:06:05;;;;;;;6.20;3.93;;;21.20;45.50;;;;;;5041172;28;20450;-47
2023/05/24 02:08:31;;;;;;;5.30;3.77;;;21.10;46.00;;;;;;5039807;28;20450;-48
2023/05/24 02:10:56;;;;;;;9.70;3.87;;;21.00;46.40;;;;;;5040916;28;20487;-51
2023/05/24 02:13:22;;;;;;;6.47;3.60;;;21.00;45.60;;;;;;5040881;28;20244;-50
2023/05/24 02:15:48;;;;;;;7.13;4.50;;;20.90;46.60;;;;;;5044266;28;23063;-47
2023/05/24 02:18:17;;;;;;;7.00;3.63;;;20.90;46.00;;;;;;5032568;28;20197;-53
2023/05/24 02:20:43;;;;;;;3.93;3.30;;;20.90;46.30;;;;;;5028004;28;20451;-48
2023/05/24 02:23:08;;;;;;;4.10;3.67;;;20.80;46.60;;;;;;5035280;28;20798;-47
2023/05/24 02:25:34;;;;;;;8.43;3.47;;;20.70;46.50;;;;;;5042371;28;20204;-46
2023/05/24 02:27:59;;;;;;;6.80;4.03;;;20.60;46.70;;;;;;5038730;28;20271;-49
2023/05/24 02:30:25;;;;;;;5.17;3.53;;;20.50;47.50;;;;;;5041171;28;20317;-47
2023/05/24 02:32:51;;;;;;;7.47;4.30;;;20.60;47.20;;;;;;5043872;28;20270;-47
2023/05/24 02:35:17;;;;;;;6.57;4.10;;;20.60;47.20;;;;;;5050455;28;20943;-47
2023/05/24 02:37:43;;;;;;;5.93;3.23;;;20.60;46.90;;;;;;5043686;28;20198;-47
2023/05/24 02:40:09;;;;;;;8.30;3.87;;;20.50;47.10;;;;;;5044042;28;20200;-47
2023/05/24 02:42:35;;;;;;;15.80;4.40;;;20.60;47.40;;;;;;5041607;28;20287;-48
2023/05/24 02:45:01;;;;;;;6.67;3.77;;;20.60;47.50;;;;;;5036322;28;21017;-48
2023/05/24 02:47:27;;;;;;;6.63;3.93;;;20.70;47.90;;;;;;5034454;28;20641;-49
2023/05/24 02:49:53;;;;;;;4.93;3.70;;;20.80;47.60;;;;;;5033701;28;20472;-52
2023/05/24 02:52:21;;;;;;;7.43;3.50;;;20.90;47.20;;;;;;5041446;28;20440;-47
2023/05/24 02:54:47;;;;;;;5.20;3.10;;;21.00;47.40;;;;;;5039043;28;20439;-51
2023/05/24 02:57:13;;;;;;;6.27;3.40;;;21.00;47.10;;;;;;5049290;28;20482;-47
2023/05/24 02:59:38;;;;;;;4.57;3.70;;;21.00;46.40;;;;;;5033320;28;20609;-47
2023/05/24 03:02:04;;;;;;;8.20;3.80;;;21.00;47.10;;;;;;5026983;28;20252;-47
2023/05/24 03:04:30;;;;;;;7.30;3.40;;;21.00;46.80;;;;;;5031773;28;20227;-48
2023/05/24 03:06:55;;;;;;;6.60;3.83;;;20.90;45.90;;;;;;5029948;28;20222;-52
2023/05/24 03:09:21;;;;;;;5.20;3.20;;;20.90;46.40;;;;;;5041696;28;20219;-47
2023/05/24 03:11:46;;;;;;;6.77;3.87;;;20.90;46.30;;;;;;5046908;28;22362;-47
2023/05/24 03:14:12;;;;;;;4.87;3.50;;;20.90;46.30;;;;;;5044956;28;20951;-47
2023/05/24 03:16:38;;;;;;;5.80;4.10;;;20.90;46.40;;;;;;5050221;28;20201;-47
2023/05/24 03:19:04;;;;;;;9.43;3.90;;;20.90;46.20;;;;;;5048723;28;20271;-50
2023/05/24 03:21:30;;;;;;;4.30;3.43;;;20.90;46.00;;;;;;5050179;28;20616;-48
2023/05/24 03:23:56;;;;;;;7.43;4.37;;;20.80;45.70;;;;;;5036840;28;20817;-48
2023/05/24 03:26:22;;;;;;;6.73;4.67;;;20.70;46.00;;;;;;5041155;28;20459;-51
2023/05/24 03:28:50;;;;;;;7.53;3.80;;;20.60;46.40;;;;;;5045977;28;20192;-47
2023/05/24 03:31:15;;;;;;;9.63;4.53;;;20.60;46.30;;;;;;5045995;28;20302;-47
2023/05/24 03:33:41;;;;;;;7.50;4.40;;;20.60;46.30;;;;;;5043878;28;20435;-48
2023/05/24 03:36:07;;;;;;;10.50;3.77;;;20.50;46.40;;;;;;5041597;28;20735;-47
2023/05/24 03:38:32;;;;;;;5.10;4.00;;;20.60;46.80;;;;;;5043007;28;20219;-48
2023/05/24 03:40:58;;;;;;;7.00;3.77;;;20.50;46.70;;;;;;5037905;28;20243;-47
2023/05/24 03:43:24;;;;;;;8.33;4.50;;;20.50;46.80;;;;;;5040940;28;20196;-47
2023/05/24 03:45:50;;;;;;;7.00;3.90;;;20.50;46.60;;;;;;5037137;28;20444;-46
2023/05/24 03:48:16;;;;;;;7.53;4.50;;;20.40;46.80;;;;;;5040054;28;20219;-49
2023/05/24 03:50:41;;;;;;;5.83;3.90;;;20.40;47.20;;;;;;5035964;28;20221;-50
2023/05/24 03:53:07;;;;;;;9.73;4.43;;;20.40;47.40;;;;;;5035885;28;20254;-46
2023/05/24 03:55:33;;;;;;;10.63;4.30;;;20.40;47.00;;;;;;5042217;28;20200;-46
2023/05/24 03:57:58;;;;;;;6.20;4.00;;;20.30;46.90;;;;;;5040594;28;20189;-47
2023/05/24 04:00:24;;;;;;;12.17;5.10;;;20.20;47.00;;;;;;5036542;28;20618;-47
2023/05/24 04:06:12;;;;;;;7.20;4.40;;;20.00;47.40;;;;;;5154423;23;20251;-53
2023/05/24 04:08:38;;;;;;;7.90;4.27;;;19.80;47.70;;;;;;5049566;28;20450;-52
2023/05/24 04:11:04;;;;;;;7.80;3.80;;;19.70;47.80;;;;;;5049620;28;20483;-52
2023/05/24 04:13:30;;;;;;;8.47;5.00;;;19.60;47.90;;;;;;5048662;28;20204;-54
2023/05/24 04:15:55;;;;;;;7.57;3.90;;;19.50;48.00;;;;;;5046822;28;20200;-52
2023/05/24 04:18:21;;;;;;;6.03;4.23;;;19.50;48.10;;;;;;5049263;28;20191;-55
2023/05/24 04:20:46;;;;;;;5.33;4.10;;;19.40;48.80;;;;;;5043038;28;20193;-51
2023/05/24 04:23:12;;;;;;;8.83;4.20;;;19.40;48.40;;;;;;5043979;28;20587;-54
2023/05/24 04:25:37;;;;;;;7.87;4.60;;;19.30;48.40;;;;;;5043745;28;20268;-51
2023/05/24 04:28:03;;;;;;;6.20;4.13;;;19.20;48.70;;;;;;5042391;28;20291;-55
2023/05/24 04:30:29;;;;;;;6.43;3.90;;;19.20;48.90;;;;;;5040594;28;20328;-54
2023/05/24 04:32:58;;;;;;;9.10;4.20;;;19.20;48.90;;;;;;5044445;28;20192;-54
2023/05/24 04:35:29;;;;;;;8.10;4.63;;;19.20;48.80;;;;;;5047103;28;20200;-54
2023/05/24 04:37:54;;;;;;;6.40;4.30;;;19.20;48.90;;;;;;5048114;28;20949;-56
2023/05/24 04:40:21;;;;;;;7.97;4.43;;;19.20;49.00;;;;;;5043761;28;20529;-54
2023/05/24 04:42:47;;;;;;;8.80;4.03;;;19.20;49.10;;;;;;5048168;28;20800;-56
2023/05/24 04:45:13;;;;;;;6.33;4.30;;;19.10;49.00;;;;;;5047324;28;20431;-55
2023/05/24 04:47:39;;;;;;;7.80;4.70;;;19.10;49.10;;;;;;5048974;28;20197;-54
2023/05/24 04:50:05;;;;;;;6.87;4.97;;;19.10;49.10;;;;;;5049919;28;21841;-53
2023/05/24 04:52:32;;;;;;;9.30;4.60;;;19.10;49.00;;;;;;5048672;28;20509;-55
2023/05/24 04:54:57;;;;;;;6.77;4.40;;;19.10;49.20;;;;;;5047612;28;20465;-55
2023/05/24 04:57:23;;;;;;;7.03;4.37;;;19.10;49.20;;;;;;5050173;28;20439;-54
2023/05/24 04:59:49;;;;;;;10.13;4.77;;;19.10;49.00;;;;;;5050322;28;20207;-52
2023/05/24 05:02:14;;;;;;;7.60;4.10;;;19.10;48.90;;;;;;5049721;28;20192;-55
2023/05/24 05:04:40;;;;;;;8.47;4.50;;;19.00;48.70;;;;;;5040262;28;20205;-55
2023/05/24 05:07:06;;;;;;;8.10;4.07;;;19.00;48.80;;;;;;5040993;28;20548;-54
2023/05/24 05:09:32;;;;;;;9.10;4.03;;;19.00;48.90;;;;;;5035465;28;20242;-53
2023/05/24 05:11:58;;;;;;;9.10;4.83;;;19.00;49.00;;;;;;5033928;28;20253;-55
2023/05/24 05:14:24;;;;;;;8.90;4.40;;;18.90;49.30;;;;;;5040961;28;20192;-53
2023/05/24 05:16:49;;;;;;;10.00;4.87;;;18.90;48.90;;;;;;5050255;28;20500;-55
2023/05/24 05:19:15;;;;;;;6.80;4.30;;;18.90;49.20;;;;;;5041701;28;20195;-53
2023/05/24 05:21:42;;;;;;;11.00;4.23;;;18.90;49.40;;;;;;5049060;28;20212;-55
2023/05/24 05:24:07;;;;;;;9.00;4.40;;;18.90;49.90;;;;;;5048515;28;20445;-51
2023/05/24 05:26:34;;;;;;;7.87;4.33;;;19.00;57.10;;;;;;5051282;28;20228;-52
2023/05/24 05:29:00;;;;;;;9.70;4.27;;;19.20;54.10;;;;;;5051780;28;20271;-51
2023/05/24 05:31:25;;;;;;;9.30;3.80;;;19.50;51.70;;;;;;5053645;28;20908;-51
2023/05/24 05:33:51;;;;;;;7.00;4.00;;;19.80;50.50;;;;;;5052320;28;20663;-52
2023/05/24 05:36:17;;;;;;;10.57;4.27;;;20.00;49.50;;;;;;5051518;28;20193;-52
2023/05/24 05:38:43;;;;;;;8.10;4.80;;;20.20;49.10;;;;;;5053779;28;20200;-54
2023/05/24 05:41:09;;;;;;;7.73;3.30;;;20.30;48.70;;;;;;5051851;28;20473;-53
2023/05/24 05:43:34;;;;;;;8.07;3.97;;;20.50;48.00;;;;;;5050396;28;20678;-55
2023/05/24 05:46:00;;;;;;;8.90;4.07;;;20.60;47.50;;;;;;5045435;28;20445;-52
2023/05/24 05:48:25;;;;;;;8.63;3.70;;;20.80;47.30;;;;;;5048467;28;20231;-53
2023/05/24 05:50:51;;;;;;;6.97;4.30;;;20.90;46.90;;;;;;5050070;28;20224;-55
2023/05/24 05:53:17;;;;;;;7.43;4.13;;;21.00;46.60;;;;;;5042391;28;20276;-54
2023/05/24 05:55:42;;;;;;;7.47;3.80;;;21.10;45.90;;;;;;5052546;28;20189;-52
2023/05/24 05:58:08;;;;;;;8.50;3.93;;;21.10;45.20;;;;;;5051881;28;20189;-55
2023/05/24 06:00:34;;;;;;;5.17;3.67;;;21.10;45.00;;;;;;5045914;28;20200;-55
2023/05/24 06:02:59;;;;;;;6.30;4.33;;;21.10;44.10;;;;;;5048951;28;20204;-52
2023/05/24 06:05:25;;;;;;;7.30;4.10;;;21.00;44.20;;;;;;5045547;28;20248;-52
2023/05/24 06:07:50;;;;;;;7.30;3.87;;;21.00;44.10;;;;;;5051291;28;20246;-52
2023/05/24 06:10:16;;;;;;;6.90;4.40;;;20.90;44.30;;;;;;5037431;28;20256;-53
2023/05/24 06:12:42;;;;;;;7.17;4.13;;;20.90;44.00;;;;;;5034826;28;21339;-52
2023/05/24 06:15:08;;;;;;;8.97;3.70;;;21.00;44.20;;;;;;5051661;28;20200;-51
2023/05/24 06:17:34;;;;;;;8.23;3.57;;;21.00;44.40;;;;;;5051138;28;20639;-55
2023/05/24 06:20:00;;;;;;;6.63;3.63;;;21.20;44.60;;;;;;5052448;28;20830;-55
2023/05/24 06:22:28;;;;;;;8.33;3.50;;;21.20;45.10;;;;;;5045358;28;20492;-52
2023/05/24 06:24:54;;;;;;;4.57;3.60;;;21.30;46.40;;;;;;5048811;28;20235;-53
2023/05/24 06:27:20;;;;;;;5.60;3.63;;;21.40;46.30;;;;;;5051897;28;20852;-53
2023/05/24 06:29:45;;;;;;;6.23;3.73;;;21.50;44.10;;;;;;5049385;28;20558;-53
2023/05/24 06:32:11;;;;;;;5.63;4.23;;;21.50;43.40;;;;;;5051488;28;20290;-51
2023/05/24 06:34:36;;;;;;;5.90;4.20;;;21.50;43.60;;;;;;5048238;28;20264;-54
2023/05/24 06:37:02;;;;;;;5.83;3.30;;;21.50;43.00;;;;;;5049707;28;20205;-53
2023/05/24 06:39:28;;;;;;;6.33;3.33;;;21.50;43.20;;;;;;5043151;28;20203;-54
2023/05/24 06:41:54;;;;;;;7.87;4.00;;;21.60;43.60;;;;;;5042810;28;20446;-46
2023/05/24 06:44:20;;;;;;;8.63;4.53;;;21.60;43.70;;;;;;5038223;28;20185;-51
2023/05/24 06:46:47;;;;;;;6.27;4.07;;;21.60;43.30;;;;;;5042288;28;20758;-51
2023/05/24 06:49:12;;;;;;;10.17;5.00;;;21.70;43.60;;;;;;5036119;28;21146;-51
2023/05/24 06:51:38;;;;;;;12.93;4.17;;;21.70;43.50;;;;;;5040426;28;20490;-49
2023/05/24 06:54:03;;;;;;;6.13;3.90;;;21.60;42.80;;;;;;5047688;28;20189;-50
2023/05/24 06:56:29;;;;;;;10.50;4.03;;;21.60;42.90;;;;;;5045266;28;20612;-51
2023/05/24 06:58:55;;;;;;;8.73;4.13;;;21.60;43.00;;;;;;5046927;28;20232;-53
2023/05/24 07:01:22;;;;;;;5.07;3.30;;;21.50;42.80;;;;;;5045720;28;20193;-50
2023/05/24 07:03:47;;;;;;;9.70;4.60;;;21.40;43.20;;;;;;5041068;28;20455;-52
2023/05/24 07:06:14;;;;;;;5.67;3.70;;;21.40;43.70;;;;;;5037633;28;20471;-51
2023/05/24 07:08:40;;;;;;;8.23;3.77;;;21.50;43.90;;;;;;5045979;28;20447;-49
2023/05/24 07:11:06;;;;;;;8.90;3.80;;;21.50;44.00;;;;;;5032463;28;20479;-52
2023/05/24 07:13:32;;;;;;;6.23;4.07;;;21.50;44.20;;;;;;5036790;28;20960;-50
2023/05/24 07:15:58;;;;;;;9.63;4.50;;;21.50;44.40;;;;;;5043576;28;20273;-49
2023/05/24 07:18:24;;;;;;;6.97;4.03;;;21.30;44.60;;;;;;5050623;28;20474;-51
2023/05/24 07:20:49;;;;;;;5.83;4.40;;;21.20;45.00;;;;;;5049074;28;20275;-54
2023/05/24 07:23:15;;;;;;;6.27;3.50;;;21.00;44.90;;;;;;5043554;28;20689;-51
2023/05/24 07:25:40;;;;;;;9.27;4.10;;;20.80;44.80;;;;;;5034612;28;20197;-47
2023/05/24 07:28:06;;;;;;;8.47;4.07;;;20.80;45.40;;;;;;5041181;28;20193;-50
2023/05/24 07:30:32;;;;;;;8.00;4.13;;;20.70;45.80;;;;;;5050809;28;20679;-48
2023/05/24 07:32:58;;;;;;;7.37;3.70;;;20.70;45.90;;;;;;5046160;28;20216;-49
2023/05/24 07:35:24;;;;;;;6.90;3.90;;;20.60;45.20;;;;;;5039560;28;20560;-51
2023/05/24 07:37:50;;;;;;;9.03;3.20;;;20.70;45.20;;;;;;5050632;28;20231;-48
2023/05/24 07:40:16;;;;;;;9.37;3.50;;;20.70;44.90;;;;;;5045918;28;20277;-52
2023/05/24 07:42:41;;;;;;;4.27;3.20;;;20.70;45.10;;;;;;5049507;28;20443;-50
2023/05/24 07:45:09;;;;;;;10.40;4.10;;;20.80;45.20;;;;;;5046568;28;20226;-48
2023/05/24 07:47:35;;;;;;;7.60;4.07;;;20.80;45.20;;;;;;5044928;28;20773;-51
2023/05/24 07:50:00;;;;;;;7.57;4.23;;;20.90;45.20;;;;;;5046986;28;20442;-52
2023/05/24 07:52:26;;;;;;;7.87;4.10;;;20.90;45.20;;;;;;5043087;28;20204;-50
2023/05/24 07:54:52;;;;;;;7.93;4.10;;;20.80;45.30;;;;;;5047369;28;20193;-50
2023/05/24 07:57:18;;;;;;;8.00;4.07;;;20.80;44.90;;;;;;5042181;28;20447;-53
2023/05/24 07:59:44;;;;;;;10.10;3.53;;;20.70;45.10;;;;;;5044363;28;20584;-53
2023/05/24 08:02:12;;;;;;;7.00;4.10;;;20.70;45.50;;;;;;5041832;28;21447;-52
2023/05/24 08:04:38;;;;;;;8.87;4.00;;;20.70;45.30;;;;;;5042360;28;20252;-51
2023/05/24 08:07:05;;;;;;;12.87;5.10;;;20.70;45.30;;;;;;5040550;28;20864;-52
2023/05/24 08:09:35;;;;;;;8.53;4.17;;;20.80;45.40;;;;;;5046743;28;20527;-50
2023/05/24 08:12:01;;;;;;;7.37;3.90;;;20.80;45.10;;;;;;5044123;28;20487;-52
2023/05/24 08:14:27;;;;;;;10.20;4.80;;;20.60;45.30;;;;;;5050297;28;20657;-51
2023/05/24 08:16:52;;;;;;;8.63;3.87;;;20.60;45.20;;;;;;5036080;28;20519;-49
2023/05/24 08:19:18;;;;;;;6.63;4.47;;;20.50;45.30;;;;;;5046367;28;20196;-50
2023/05/24 08:21:44;;;;;;;10.23;4.00;;;20.60;45.20;;;;;;5045673;28;20279;-49
2023/05/24 08:24:10;;;;;;;7.50;4.37;;;20.70;45.20;;;;;;5042128;28;20219;-50
2023/05/24 08:26:36;;;;;;;7.23;3.90;;;20.50;44.60;;;;;;5039069;28;20649;-48
2023/05/24 08:29:02;;;;;;;5.20;3.27;;;20.60;45.50;;;;;;5050851;28;20510;-52
2023/05/24 08:31:28;;;;;;;9.73;4.17;;;20.80;45.20;;;;;;5029241;28;20597;-51
2023/05/24 08:33:56;;;;;;;7.13;4.03;;;20.90;45.00;;;;;;5050397;28;20648;-50
2023/05/24 08:36:21;;;;;;;8.00;3.93;;;20.90;44.90;;;;;;5048323;28;20207;-50
2023/05/24 08:38:47;;;;;;;10.30;5.43;;;21.00;44.70;;;;;;5049547;28;20822;-51
2023/05/24 08:41:12;;;;;;;9.43;4.63;;;20.80;44.70;;;;;;5050589;28;20194;-49
2023/05/24 08:43:38;;;;;;;7.63;4.57;;;20.90;44.70;;;;;;5048154;28;20682;-51
2023/05/24 08:46:05;;;;;;;7.57;4.13;;;20.80;44.40;;;;;;5047044;28;20196;-52
2023/05/24 08:48:31;;;;;;;7.20;3.57;;;21.00;44.70;;;;;;5046069;28;20185;-50
2023/05/24 08:50:57;;;;;;;9.77;4.10;;;21.10;45.20;;;;;;5040855;28;20782;-47
2023/05/24 08:53:23;;;;;;;6.80;3.77;;;21.20;45.00;;;;;;5037178;28;20197;-50
2023/05/24 08:55:52;;;;;;;6.57;3.33;;;21.30;44.50;;;;;;5045039;28;20292;-51
2023/05/24 08:58:18;;;;;;;8.37;4.30;;;21.40;44.60;;;;;;5046851;28;20452;-48
2023/05/24 09:00:44;;;;;;;6.80;3.90;;;21.50;44.20;;;;;;5045462;28;20439;-47
2023/05/24 09:03:11;;;;;;;8.43;3.70;;;21.40;44.30;;;;;;5038798;28;20509;-48
2023/05/24 09:05:38;;;;;;;13.80;3.87;;;21.40;44.00;;;;;;5024781;28;20699;-51
2023/05/24 09:08:04;;;;;;;8.53;4.40;;;21.40;43.90;;;;;;5041004;28;20518;-52
2023/05/24 09:10:32;;;;;;;7.87;4.00;;;21.50;43.80;;;;;;5044887;28;20582;-50
2023/05/24 09:13:01;;;;;;;10.43;4.47;;;21.60;43.80;;;;;;5048660;28;20446;-50
2023/05/24 09:15:27;;;;;;;5.90;3.50;;;21.60;43.50;;;;;;5042662;28;20447;-46
2023/05/24 09:17:53;;;;;;;7.83;4.03;;;21.60;43.50;;;;;;5044349;28;20431;-51
2023/05/24 09:20:20;;;;;;;5.90;3.73;;;21.70;43.30;;;;;;5050747;28;20664;-50
2023/05/24 09:22:52;;;;;;;8.30;3.97;;;21.80;43.20;;;;;;5044630;28;20545;-52
2023/05/24 09:25:21;;;;;;;8.40;3.77;;;21.90;43.20;;;;;;5040124;28;20442;-50
2023/05/24 09:27:51;;;;;;;9.60;4.13;;;21.90;41.90;;;;;;5044073;28;20435;-52
2023/05/24 09:30:17;;;;;;;7.93;4.37;;;21.80;42.50;;;;;;5033478;28;20475;-49
2023/05/24 09:32:55;;;;;;;9.30;4.20;;;21.80;42.90;;;;;;5036368;28;20443;-52
2023/05/24 09:35:21;;;;;;;7.03;4.20;;;21.90;43.00;;;;;;5038251;28;20492;-52
2023/05/24 09:37:47;;;;;;;10.00;3.80;;;22.00;42.90;;;;;;5048836;28;20446;-51
2023/05/24 09:40:19;;;;;;;6.70;4.30;;;22.00;42.80;;;;;;5048631;28;20235;-51
2023/05/24 09:42:45;;;;;;;9.30;3.63;;;22.10;42.80;;;;;;5038645;28;20271;-49
2023/05/24 09:45:11;;;;;;;6.93;4.53;;;22.00;43.00;;;;;;5046071;28;20523;-49
2023/05/24 09:47:40;;;;;;;6.27;4.10;;;22.00;42.90;;;;;;5043332;28;20250;-49
2023/05/24 09:50:12;;;;;;;6.60;4.20;;;22.00;43.00;;;;;;5049479;28;20423;-49
2023/05/24 09:52:37;;;;;;;9.67;4.40;;;21.90;43.20;;;;;;5044841;28;20459;-50
2023/05/24 09:55:14;;;;;;;8.00;4.87;;;21.90;43.10;;;;;;5049442;28;20431;-49
2023/05/24 09:57:40;;;;;;;11.60;4.83;;;21.90;42.70;;;;;;5047954;28;20207;-49
2023/05/24 10:00:29;;;;;;;8.20;3.67;;;21.80;42.90;;;;;;5047068;28;20439;-52
2023/05/24 10:03:07;;;;;;;7.00;4.23;;;21.90;43.30;;;;;;5045748;28;20258;-53
2023/05/24 10:05:34;;;;;;;8.87;4.03;;;21.80;43.50;;;;;;5044025;28;20891;-50
2023/05/24 10:08:00;;;;;;;7.87;4.70;;;21.70;43.80;;;;;;5040213;28;20443;-50
2023/05/24 10:10:31;;;;;;;12.77;5.53;;;21.80;43.50;;;;;;5034930;28;20466;-51
2023/05/24 10:12:57;;;;;;;6.70;4.43;;;21.80;43.50;;;;;;5051318;28;20459;-50
2023/05/24 10:15:24;;;;;;;10.60;5.03;;;21.90;43.30;;;;;;5038908;28;20447;-49
2023/05/24 10:17:51;;;;;;;12.00;4.10;;;21.80;43.20;;;;;;5044954;28;20475;-49
2023/05/24 10:20:17;;;;;;;7.30;4.73;;;21.80;43.40;;;;;;5046855;28;20502;-49
2023/05/24 10:22:45;;;;;;;9.40;4.97;;;21.80;42.90;;;;;;5042388;28;20451;-50
2023/05/24 10:25:19;;;;;;;9.10;5.20;;;21.80;43.10;;;;;;5048615;28;20490;-48
2023/05/24 10:27:47;;;;;;;9.00;4.50;;;21.80;43.10;;;;;;5033682;28;20432;-49
2023/05/24 10:30:29;;;;;;;9.83;4.33;;;21.80;43.00;;;;;;5043576;28;20478;-47
2023/05/24 10:32:55;;;;;;;7.77;4.47;;;21.80;42.60;;;;;;5028675;28;20981;-51
2023/05/24 10:35:23;;;;;;;9.17;3.97;;;21.70;43.20;;;;;;5041178;28;20946;-50
2023/05/24 10:37:49;;;;;;;10.73;4.63;;;21.60;43.70;;;;;;5039814;28;20604;-50
2023/05/24 10:40:18;;;;;;;10.97;4.37;;;21.70;43.50;;;;;;5043708;28;21040;-48
2023/05/24 10:42:45;;;;;;;8.73;3.83;;;21.70;43.50;;;;;;5042056;28;20446;-49
2023/05/24 10:45:38;;;;;;;10.20;4.07;;;21.70;45.90;;;;;;5041317;28;20914;-49
2023/05/24 10:48:12;;;;;;;4.37;3.90;;;21.70;46.80;;;;;;5041574;28;20451;-48
2023/05/24 10:50:39;;;;;;;6.73;4.40;;;21.90;47.20;;;;;;5051651;28;20485;-50
2023/05/24 10:53:37;;;;;;;9.13;4.37;;;22.00;44.70;;;;;;5046917;28;20781;-48
2023/05/24 10:56:07;;;;;;;5.93;4.57;;;22.10;43.10;;;;;;5030305;28;21009;-49
2023/05/24 10:58:32;;;;;;;7.50;3.83;;;22.00;46.00;;;;;;5051752;28;20509;-52
2023/05/24 11:00:58;;;;;;;14.27;4.77;;;22.10;46.10;;;;;;5046874;28;20805;-52
2023/05/24 11:03:24;;;;;;;9.80;5.00;;;22.30;45.40;;;;;;5046904;28;20216;-48
2023/05/24 11:05:51;;;;;;;9.03;4.47;;;22.40;45.40;;;;;;5047345;28;20255;-52
2023/05/24 11:08:31;;;;;;;11.60;5.10;;;22.50;45.10;;;;;;5051731;28;20443;-49
2023/05/24 11:11:19;;;;;;;11.23;4.87;;;22.60;42.70;;;;;;5051747;28;20479;-49
2023/05/24 11:13:46;;;;;;;9.63;4.93;;;22.70;42.80;;;;;;5031365;28;20455;-52
2023/05/24 11:16:38;;;;;;;7.50;4.40;;;22.70;42.60;;;;;;5046633;28;20443;-53
2023/05/24 11:19:27;;;;;;;8.47;4.17;;;22.70;43.90;;;;;;5052917;28;21213;-48
2023/05/24 11:21:57;;;;;;;8.03;3.67;;;22.90;43.90;;;;;;5049587;28;20443;-50
2023/05/24 11:24:24;;;;;;;8.00;3.93;;;22.90;43.70;;;;;;5050107;28;20493;-49
2023/05/24 11:26:50;;;;;;;9.13;4.80;;;23.10;43.80;;;;;;5049491;28;20447;-53
2023/05/24 11:29:17;;;;;;;8.80;4.20;;;23.30;41.90;;;;;;5052433;28;20434;-48
2023/05/24 11:31:56;;;;;;;7.10;3.87;;;23.50;41.60;;;;;;5051526;28;20894;-51
2023/05/24 11:34:23;;;;;;;9.60;3.93;;;23.50;42.00;;;;;;5048240;28;20812;-51
2023/05/24 11:36:52;;;;;;;6.37;3.70;;;23.60;42.10;;;;;;5047082;28;20544;-49
2023/05/24 11:39:18;;;;;;;5.83;3.90;;;23.70;41.80;;;;;;5036504;28;20510;-49
2023/05/24 11:41:43;;;;;;;8.70;4.47;;;23.70;42.20;;;;;;5043215;28;20841;-52
2023/05/24 11:44:10;;;;;;;9.90;3.50;;;23.70;41.40;;;;;;5048858;28;20447;-50
2023/05/24 11:46:39;;;;;;;10.27;4.90;;;23.80;40.40;;;;;;5044523;28;20263;-49
2023/05/24 11:49:05;;;;;;;9.30;4.50;;;23.90;39.10;;;;;;5046305;28;20549;-51
2023/05/24 11:51:32;;;;;;;6.33;3.93;;;23.80;38.40;;;;;;5045308;28;20502;-52
2023/05/24 11:53:59;;;;;;;6.90;3.70;;;23.70;37.60;;;;;;5050775;28;20420;-49
2023/05/24 11:56:27;;;;;;;11.83;3.67;;;23.50;37.10;;;;;;5048694;28;20454;-50
2023/05/24 11:59:01;;;;;;;7.83;4.40;;;23.50;37.60;;;;;;5044758;28;20976;-52
2023/05/24 12:01:27;;;;;;;7.63;3.67;;;23.50;39.10;;;;;;5046245;28;20437;-49
2023/05/24 12:03:53;;;;;;;6.70;3.83;;;23.50;38.00;;;;;;5048498;28;20439;-48
2023/05/24 12:06:20;;;;;;;9.90;4.07;;;23.50;39.60;;;;;;5047853;28;20282;-52
2023/05/24 12:08:47;;;;;;;4.57;3.60;;;23.70;38.50;;;;;;5050727;28;20887;-51
2023/05/24 12:11:13;;;;;;;9.30;4.17;;;24.00;37.00;;;;;;5050446;28;20505;-49
2023/05/24 12:13:39;;;;;;;8.50;4.00;;;24.10;36.30;;;;;;5044386;28;20542;-51
2023/05/24 12:16:06;;;;;;;11.13;5.00;;;24.20;35.50;;;;;;5051293;28;20454;-52
2023/05/24 12:18:32;;;;;;;9.53;4.57;;;24.30;36.70;;;;;;5050173;28;20459;-49
2023/05/24 12:20:57;;;;;;;5.73;3.00;;;24.30;37.70;;;;;;5049533;28;20447;-50
2023/05/24 12:23:30;;;;;;;7.23;3.73;;;24.30;36.00;;;;;;5047716;28;20227;-52
2023/05/24 12:26:00;;;;;;;6.20;3.43;;;24.40;36.20;;;;;;5040309;28;20189;-54
2023/05/24 12:28:27;;;;;;;7.20;4.07;;;24.50;34.90;;;;;;5044387;28;20530;-53
2023/05/24 12:30:53;;;;;;;11.33;4.23;;;24.60;34.40;;;;;;5047413;28;20567;-54
2023/05/24 12:33:19;;;;;;;7.43;3.90;;;24.80;33.90;;;;;;5046380;28;20443;-50
2023/05/24 12:35:47;;;;;;;8.03;4.00;;;25.00;34.50;;;;;;5043911;28;20223;-50
2023/05/24 12:38:12;;;;;;;8.73;3.50;;;25.10;33.70;;;;;;5042020;28;20468;-50
2023/05/24 12:40:42;;;;;;;7.13;3.63;;;25.10;33.00;;;;;;5038200;28;20482;-52
2023/05/24 12:43:09;;;;;;;6.73;3.60;;;24.80;34.20;;;;;;5043281;28;20599;-53
2023/05/24 12:45:36;;;;;;;7.27;4.07;;;25.00;34.70;;;;;;5041484;28;20512;-53
2023/05/24 12:48:03;;;;;;;8.43;3.73;;;25.20;33.20;;;;;;5049430;28;20473;-54
2023/05/24 12:50:30;;;;;;;6.63;4.30;;;25.20;32.10;;;;;;5049960;28;20470;-53